createdAt,value
2022-12-27T00:00:02.767Z,7.00
2022-12-27T00:02:30.076Z,3.58
2022-12-27T00:04:57.053Z,6.85
2022-12-27T00:07:24.200Z,5.22
2022-12-27T00:09:51.509Z,3.45
2022-12-27T00:12:19.147Z,9.48
2022-12-27T00:14:46.232Z,8.70
2022-12-27T00:17:13.363Z,8.13
2022-12-27T00:19:40.522Z,6.70
2022-12-27T00:22:08.763Z,3.78
2022-12-27T00:24:36.019Z,5.85
2022-12-27T00:27:04.126Z,8.57
2022-12-27T00:29:31.194Z,6.60
2022-12-27T00:31:58.365Z,6.38
2022-12-27T00:34:25.355Z,8.30
2022-12-27T00:36:53.732Z,9.48
2022-12-27T00:39:20.736Z,10.23
2022-12-27T00:41:47.932Z,9.57
2022-12-27T00:44:14.910Z,6.15
2022-12-27T00:46:41.995Z,6.68
2022-12-27T00:49:09.333Z,5.78
2022-12-27T00:51:37.153Z,6.75
2022-12-27T00:54:04.405Z,5.30
2022-12-27T00:56:31.461Z,8.90
2022-12-27T00:59:01.552Z,8.48
2022-12-27T01:01:30.785Z,4.45
2022-12-27T01:03:59.009Z,6.30
2022-12-27T01:06:29.207Z,5.85
2022-12-27T01:08:57.534Z,7.80
2022-12-27T01:11:26.251Z,7.95
2022-12-27T01:13:56.235Z,8.05
2022-12-27T01:16:25.561Z,7.45
2022-12-27T01:18:53.015Z,6.07
2022-12-27T01:21:22.270Z,9.35
2022-12-27T01:23:49.816Z,5.75
2022-12-27T01:26:22.499Z,9.48
2022-12-27T01:28:51.060Z,5.47
2022-12-27T01:31:21.326Z,4.32
2022-12-27T01:33:49.131Z,7.80
2022-12-27T01:36:21.248Z,5.75
2022-12-27T01:38:49.273Z,5.63
2022-12-27T01:41:37.404Z,7.82
2022-12-27T01:44:38.586Z,6.22
2022-12-27T01:47:44.544Z,9.30
2022-12-27T01:50:20.389Z,11.23
2022-12-27T01:52:47.215Z,5.65
2022-12-27T01:55:22.968Z,8.27
2022-12-27T01:57:53.201Z,7.30
2022-12-27T02:00:22.007Z,12.52
2022-12-27T02:02:51.344Z,11.48
2022-12-27T02:05:20.968Z,7.50
2022-12-27T02:08:12.691Z,6.00
2022-12-27T02:10:40.607Z,6.28
2022-12-27T02:13:07.913Z,6.75
2022-12-27T02:15:34.913Z,7.13
2022-12-27T02:18:01.919Z,4.25
2022-12-27T02:20:37.004Z,6.90
2022-12-27T02:23:37.752Z,8.02
2022-12-27T02:26:28.310Z,8.40
2022-12-27T02:29:10.124Z,4.63
2022-12-27T02:31:59.722Z,5.20
2022-12-27T02:34:35.277Z,7.38
2022-12-27T02:37:08.725Z,6.80
2022-12-27T02:39:41.212Z,7.80
2022-12-27T02:42:49.424Z,5.38
2022-12-27T02:45:42.222Z,8.15
2022-12-27T02:48:33.587Z,7.97
2022-12-27T02:51:26.204Z,4.68
2022-12-27T02:54:35.888Z,5.10
2022-12-27T02:57:11.909Z,8.93
2022-12-27T03:00:25.158Z,6.88
2022-12-27T03:03:24.383Z,5.95
2022-12-27T03:06:39.913Z,10.65
2022-12-27T03:09:39.129Z,7.05
2022-12-27T03:12:33.353Z,5.57
2022-12-27T03:15:30.475Z,9.90
2022-12-27T03:18:11.638Z,8.48
2022-12-27T03:20:58.708Z,9.82
2022-12-27T03:23:45.857Z,8.52
2022-12-27T03:26:15.576Z,8.68
2022-12-27T03:29:03.770Z,12.98
2022-12-27T03:31:55.305Z,5.38
2022-12-27T03:34:35.990Z,6.35
2022-12-27T03:37:27.717Z,7.38
2022-12-27T03:40:14.879Z,5.38
2022-12-27T03:43:12.513Z,6.38
2022-12-27T03:46:22.535Z,4.60
2022-12-27T03:49:26.482Z,10.27
2022-12-27T03:52:00.571Z,7.45
2022-12-27T03:54:34.472Z,7.82
2022-12-27T03:57:05.676Z,10.68
2022-12-27T03:59:32.872Z,11.30
2022-12-27T04:02:00.779Z,9.32
2022-12-27T04:04:29.618Z,12.02
2022-12-27T04:06:56.753Z,11.85
2022-12-27T04:09:42.525Z,10.63
2022-12-27T04:12:28.356Z,12.88
2022-12-27T04:15:14.064Z,6.20
2022-12-27T04:18:00.043Z,11.57
2022-12-27T04:20:45.904Z,10.18
2022-12-27T04:23:31.838Z,11.85
2022-12-27T04:26:17.784Z,8.30
2022-12-27T04:29:03.176Z,10.50
2022-12-27T04:31:48.749Z,7.18
2022-12-27T04:34:34.349Z,11.88
2022-12-27T04:37:01.447Z,10.43
2022-12-27T04:39:28.347Z,5.45
2022-12-27T04:42:13.938Z,11.20
2022-12-27T04:45:00.291Z,12.00
2022-12-27T04:47:45.943Z,9.18
2022-12-27T04:50:52.038Z,7.60
2022-12-27T04:53:40.628Z,15.75
2022-12-27T04:56:07.926Z,8.05
2022-12-27T04:58:35.427Z,10.20
2022-12-27T05:01:23.157Z,7.20
2022-12-27T05:03:53.790Z,6.80
2022-12-27T05:06:26.325Z,8.93
2022-12-27T05:09:12.412Z,10.27
2022-12-27T05:11:58.523Z,11.75
2022-12-27T05:14:25.578Z,15.93
2022-12-27T05:16:52.936Z,7.75
2022-12-27T05:19:20.007Z,16.73
2022-12-27T05:22:07.383Z,12.25
2022-12-27T05:24:53.117Z,17.52
2022-12-27T05:27:20.234Z,11.10
2022-12-27T05:29:47.834Z,11.98
2022-12-27T05:32:14.822Z,12.65
2022-12-27T05:34:42.205Z,13.30
2022-12-27T05:37:09.509Z,8.30
2022-12-27T05:39:37.413Z,16.02
2022-12-27T05:42:04.722Z,10.57
2022-12-27T05:44:32.380Z,9.63
2022-12-27T05:46:59.772Z,15.98
2022-12-27T05:49:26.905Z,16.00
2022-12-27T05:51:57.551Z,12.48
2022-12-27T05:54:25.527Z,14.02
2022-12-27T05:56:52.933Z,18.30
2022-12-27T05:59:21.080Z,13.48
2022-12-27T06:01:48.886Z,17.88
2022-12-27T06:04:17.042Z,14.98
2022-12-27T06:06:44.295Z,16.67
2022-12-27T06:09:12.293Z,16.77
2022-12-27T06:11:39.357Z,17.60
2022-12-27T06:14:09.737Z,20.88
2022-12-27T06:16:37.412Z,20.00
2022-12-27T06:19:05.513Z,23.98
2022-12-27T06:21:33.429Z,18.05
2022-12-27T06:24:01.351Z,16.90
2022-12-27T06:26:30.430Z,14.48
2022-12-27T06:28:59.175Z,11.98
2022-12-27T06:31:29.878Z,20.42
2022-12-27T06:33:57.975Z,19.05
2022-12-27T06:36:33.560Z,16.63
2022-12-27T06:39:02.950Z,16.83
2022-12-27T06:41:30.561Z,18.20
2022-12-27T06:43:59.546Z,19.88
2022-12-27T06:46:27.843Z,22.73
2022-12-27T06:48:55.736Z,17.98
2022-12-27T06:51:24.136Z,19.13
2022-12-27T06:53:51.667Z,19.88
2022-12-27T06:56:22.119Z,20.92
2022-12-27T06:58:51.557Z,18.67
2022-12-27T07:01:27.279Z,23.90
2022-12-27T07:04:00.583Z,19.60
2022-12-27T07:06:35.293Z,21.48
2022-12-27T07:09:04.724Z,19.98
2022-12-27T07:11:35.278Z,16.95
2022-12-27T07:14:03.866Z,16.75
2022-12-27T07:16:31.933Z,16.00
2022-12-27T07:19:00.552Z,23.80
2022-12-27T07:21:29.987Z,17.17
2022-12-27T07:23:58.032Z,16.02
2022-12-27T07:26:30.134Z,13.70
2022-12-27T07:29:01.801Z,18.10
2022-12-27T07:31:31.713Z,20.45
2022-12-27T07:34:01.257Z,16.58
2022-12-27T07:36:34.482Z,21.45
2022-12-27T07:39:01.805Z,19.65
2022-12-27T07:41:30.542Z,16.23
2022-12-27T07:44:01.196Z,13.30
2022-12-27T07:46:28.994Z,15.85
2022-12-27T07:48:58.144Z,14.88
2022-12-27T07:51:26.215Z,16.08
2022-12-27T07:53:54.801Z,17.25
2022-12-27T07:56:26.747Z,23.42
2022-12-27T07:58:56.630Z,17.37
2022-12-27T08:01:26.547Z,15.05
2022-12-27T08:03:54.438Z,20.13
2022-12-27T08:06:31.693Z,18.27
2022-12-27T08:09:03.224Z,12.60
2022-12-27T08:11:31.355Z,19.45
2022-12-27T08:13:59.184Z,16.63
2022-12-27T08:16:27.162Z,14.82
2022-12-27T08:18:54.850Z,18.52
2022-12-27T08:21:24.021Z,16.80
2022-12-27T08:23:51.873Z,17.45
2022-12-27T08:26:24.556Z,14.98
2022-12-27T08:28:53.080Z,14.48
2022-12-27T08:31:21.404Z,17.40
2022-12-27T08:33:51.226Z,17.50
2022-12-27T08:36:53.371Z,17.00
2022-12-27T08:39:09.528Z,16.30
2022-12-27T08:41:36.667Z,12.15
2022-12-27T08:44:05.263Z,16.20
2022-12-27T08:46:33.442Z,18.90
2022-12-27T08:49:01.039Z,13.98
2022-12-27T08:51:35.814Z,17.85
2022-12-27T08:54:08.108Z,15.40
2022-12-27T08:56:35.517Z,19.40
2022-12-27T08:59:03.620Z,17.90
2022-12-27T09:01:31.323Z,15.98
2022-12-27T09:03:58.913Z,17.10
2022-12-27T09:06:27.988Z,24.63
2022-12-27T09:08:56.450Z,20.80
2022-12-27T09:11:27.268Z,22.10
2022-12-27T09:13:55.183Z,23.27
2022-12-27T09:16:27.676Z,17.83
2022-12-27T09:18:56.378Z,21.50
2022-12-27T09:21:26.027Z,18.92
2022-12-27T09:23:55.512Z,18.45
2022-12-27T09:26:28.536Z,17.42
2022-12-27T09:28:57.208Z,15.65
2022-12-27T09:31:27.132Z,14.35
2022-12-27T09:33:55.300Z,14.52
2022-12-27T09:36:26.022Z,13.27
2022-12-27T09:38:55.603Z,14.43
2022-12-27T09:42:52.187Z,17.25
2022-12-27T09:45:16.584Z,11.88
2022-12-27T09:48:01.362Z,15.55
2022-12-27T09:50:33.809Z,13.85
2022-12-27T09:53:25.060Z,17.58
2022-12-27T09:55:54.594Z,17.55
2022-12-27T09:58:28.667Z,20.23
2022-12-27T10:00:56.100Z,19.88
2022-12-27T10:03:27.259Z,16.73
2022-12-27T10:06:09.508Z,16.52
2022-12-27T10:08:48.434Z,16.17
2022-12-27T10:11:39.280Z,15.45
2022-12-27T10:14:14.922Z,18.48
2022-12-27T10:17:02.516Z,17.50
2022-12-27T10:19:49.160Z,15.80
2022-12-27T10:22:39.092Z,17.70
2022-12-27T10:25:14.158Z,14.07
2022-12-27T10:27:42.843Z,15.65
2022-12-27T10:30:21.970Z,15.30
2022-12-27T10:32:50.195Z,15.52
2022-12-27T10:35:21.514Z,14.73
2022-12-27T10:37:49.935Z,13.70
2022-12-27T10:40:46.761Z,16.73
2022-12-27T10:43:27.167Z,13.88
2022-12-27T10:45:55.885Z,19.55
2022-12-27T10:48:32.166Z,16.42
2022-12-27T10:51:12.061Z,17.67
2022-12-27T10:53:47.093Z,16.33
2022-12-27T10:56:31.491Z,17.77
2022-12-27T10:59:13.831Z,16.58
2022-12-27T11:01:42.470Z,15.00
2022-12-27T11:04:22.063Z,17.60
2022-12-27T11:06:53.403Z,16.33
2022-12-27T11:09:34.696Z,18.98
2022-12-27T11:12:18.343Z,16.52
2022-12-27T11:14:56.954Z,15.18
2022-12-27T11:17:30.045Z,15.23
2022-12-27T11:20:01.677Z,13.00
2022-12-27T11:22:29.809Z,20.00
2022-12-27T11:25:03.026Z,16.90
2022-12-27T11:27:32.792Z,20.02
2022-12-27T11:30:00.949Z,21.52
2022-12-27T11:32:28.821Z,20.60
2022-12-27T11:34:57.578Z,18.67
2022-12-27T11:37:27.576Z,17.33
2022-12-27T11:40:21.779Z,17.25
2022-12-27T11:42:54.746Z,18.15
2022-12-27T11:45:29.086Z,20.58
2022-12-27T11:48:04.572Z,18.80
2022-12-27T11:50:51.893Z,18.45
2022-12-27T11:53:37.883Z,18.38
2022-12-27T11:56:25.745Z,19.73
2022-12-27T11:58:59.355Z,20.35
2022-12-27T12:01:55.192Z,21.58
2022-12-27T12:04:54.355Z,19.52
2022-12-27T12:07:49.195Z,17.92
2022-12-27T12:10:23.191Z,20.42
2022-12-27T12:13:21.917Z,21.13
2022-12-27T12:16:01.837Z,21.73
2022-12-27T12:19:07.801Z,26.58
2022-12-27T12:21:48.963Z,25.65
2022-12-27T12:24:34.777Z,21.10
2022-12-27T12:27:11.454Z,20.50
2022-12-27T12:30:12.759Z,15.60
2022-12-27T12:33:14.822Z,19.45
2022-12-27T12:36:23.771Z,23.10
2022-12-27T12:39:29.877Z,22.15
2022-12-27T12:42:29.024Z,19.30
2022-12-27T12:45:31.142Z,15.07
2022-12-27T12:48:12.996Z,16.60
2022-12-27T12:51:01.873Z,18.88
2022-12-27T12:53:47.227Z,17.90
2022-12-27T12:56:14.537Z,17.95
2022-12-27T12:58:53.083Z,16.33
2022-12-27T13:01:51.067Z,17.48
2022-12-27T13:04:28.113Z,19.13
2022-12-27T13:07:18.168Z,16.60
2022-12-27T13:10:13.378Z,16.25
2022-12-27T13:12:54.748Z,14.80
2022-12-27T13:15:42.033Z,19.92
2022-12-27T13:18:38.115Z,12.40
2022-12-27T13:21:17.320Z,14.43
2022-12-27T13:23:51.985Z,15.65
2022-12-27T13:26:47.260Z,15.00
2022-12-27T13:29:51.760Z,11.75
2022-12-27T13:32:37.168Z,18.08
2022-12-27T13:35:20.371Z,13.02
2022-12-27T13:38:24.744Z,12.48
2022-12-27T13:41:18.560Z,11.43
2022-12-27T13:44:18.812Z,12.77
2022-12-27T13:46:52.327Z,15.73
2022-12-27T13:49:47.783Z,17.60
2022-12-27T13:52:50.572Z,14.20
2022-12-27T13:55:38.146Z,13.68
2022-12-27T13:58:23.679Z,12.82
2022-12-27T14:01:15.787Z,13.13
2022-12-27T14:04:20.887Z,9.40
2022-12-27T14:07:26.207Z,10.02
2022-12-27T14:09:57.074Z,9.70
2022-12-27T14:13:02.388Z,8.18
2022-12-27T14:15:41.867Z,8.68
2022-12-27T14:18:27.588Z,7.07
2022-12-27T14:21:28.272Z,6.65
2022-12-27T14:24:20.322Z,5.07
2022-12-27T14:26:59.828Z,4.20
2022-12-27T14:29:39.004Z,2.95
2022-12-27T14:32:06.043Z,2.30
2022-12-27T14:35:04.209Z,2.65
2022-12-27T14:37:40.529Z,2.60
2022-12-27T14:40:42.378Z,2.45
2022-12-27T14:43:39.434Z,2.58
2022-12-27T14:46:38.448Z,1.00
2022-12-27T14:49:32.886Z,0.82
2022-12-27T14:52:27.878Z,0.93
2022-12-27T14:55:00.930Z,1.55
2022-12-27T14:57:52.540Z,1.05
2022-12-27T15:00:24.600Z,0.85
2022-12-27T15:03:41.453Z,0.35
2022-12-27T15:06:50.993Z,0.43
2022-12-27T15:10:16.247Z,0.30
2022-12-27T15:13:12.209Z,0.20
2022-12-27T15:16:20.787Z,0.10
2022-12-27T15:19:02.167Z,1.05
2022-12-27T15:21:41.630Z,0.57
2022-12-27T15:24:28.020Z,1.20
2022-12-27T15:26:59.048Z,0.82
2022-12-27T15:29:41.550Z,0.03
2022-12-27T15:32:42.106Z,1.42
2022-12-27T15:35:19.389Z,0.45
2022-12-27T15:38:06.663Z,1.02
2022-12-27T15:40:33.566Z,0.43
2022-12-27T15:43:22.525Z,0.55
2022-12-27T15:46:05.075Z,0.50
2022-12-27T15:48:53.239Z,1.08
2022-12-27T15:51:32.205Z,0.38
2022-12-27T15:54:08.376Z,7.03
2022-12-27T15:56:50.871Z,5.57
2022-12-27T15:59:45.421Z,9.75
2022-12-27T16:02:21.161Z,0.82
2022-12-27T16:04:48.453Z,1.33
2022-12-27T16:07:43.317Z,3.15
2022-12-27T16:10:32.355Z,4.72
2022-12-27T16:13:05.223Z,1.48
2022-12-27T16:15:45.344Z,1.63
2022-12-27T16:18:43.864Z,2.28
2022-12-27T16:21:20.022Z,9.80
2022-12-27T16:23:46.873Z,5.90
2022-12-27T16:26:20.940Z,4.03
2022-12-27T16:29:04.585Z,2.00
2022-12-27T16:31:45.113Z,1.05
2022-12-27T16:34:25.456Z,0.55
2022-12-27T16:36:55.492Z,2.03
2022-12-27T16:39:41.009Z,1.63
2022-12-27T16:42:09.007Z,2.03
2022-12-27T16:44:54.274Z,0.45
2022-12-27T16:47:39.251Z,0.73
2022-12-27T16:50:21.397Z,1.02
2022-12-27T16:53:19.700Z,1.33
2022-12-27T16:56:18.826Z,2.10
2022-12-27T16:58:45.949Z,0.90
2022-12-27T17:01:18.752Z,1.35
2022-12-27T17:03:49.109Z,4.15
2022-12-27T17:06:34.983Z,4.18
2022-12-27T17:09:11.263Z,0.10
2022-12-27T17:11:50.282Z,1.30
2022-12-27T17:14:28.187Z,0.98
2022-12-27T17:17:03.105Z,2.25
2022-12-27T17:19:40.235Z,1.17
2022-12-27T17:22:12.335Z,1.15
2022-12-27T17:24:39.236Z,0.43
2022-12-27T17:27:18.508Z,0.52
2022-12-27T17:30:03.543Z,1.20
2022-12-27T17:32:30.673Z,1.75
2022-12-27T17:35:29.242Z,0.35
2022-12-27T17:38:02.311Z,5.03
2022-12-27T17:40:41.047Z,2.92
2022-12-27T17:43:39.724Z,4.78
2022-12-27T17:46:21.821Z,1.55
2022-12-27T17:48:51.603Z,1.13
2022-12-27T17:51:22.958Z,0.82
2022-12-27T17:54:10.304Z,4.97
2022-12-27T17:57:20.035Z,1.25
2022-12-27T17:59:50.694Z,1.80
2022-12-27T18:02:25.520Z,1.08
2022-12-27T18:04:55.530Z,7.15
2022-12-27T18:07:26.950Z,2.30
2022-12-27T18:09:58.910Z,1.80
2022-12-27T18:12:34.630Z,9.93
2022-12-27T18:15:05.137Z,1.30
2022-12-27T18:17:54.156Z,4.47
2022-12-27T18:20:27.125Z,3.72
2022-12-27T18:23:02.910Z,2.85
2022-12-27T18:25:45.261Z,1.17
2022-12-27T18:28:33.921Z,1.08
2022-12-27T18:31:11.875Z,1.58
2022-12-27T18:33:47.945Z,3.40
2022-12-27T18:36:26.842Z,1.05
2022-12-27T18:39:00.885Z,4.47
2022-12-27T18:41:36.986Z,2.03
2022-12-27T18:44:10.359Z,1.75
2022-12-27T18:46:38.921Z,2.13
2022-12-27T18:49:07.024Z,4.05
2022-12-27T18:51:39.475Z,3.13
2022-12-27T18:54:31.126Z,4.05
2022-12-27T18:57:00.706Z,4.15
2022-12-27T18:59:36.721Z,5.20
2022-12-27T19:02:34.685Z,3.40
2022-12-27T19:05:27.020Z,1.27
2022-12-27T19:08:10.330Z,1.10
2022-12-27T19:10:43.732Z,2.80
2022-12-27T19:13:24.488Z,4.60
2022-12-27T19:15:54.677Z,1.67
2022-12-27T19:18:32.684Z,1.90
2022-12-27T19:21:02.250Z,2.80
2022-12-27T19:23:37.386Z,2.70
2022-12-27T19:26:16.396Z,2.03
2022-12-27T19:29:01.726Z,1.67
2022-12-27T19:31:29.443Z,2.22
2022-12-27T19:34:02.743Z,2.42
2022-12-27T19:36:38.016Z,3.72
2022-12-27T19:39:16.455Z,1.95
2022-12-27T19:41:45.558Z,2.20
2022-12-27T19:44:14.158Z,4.88
2022-12-27T19:46:42.118Z,1.42
2022-12-27T19:49:41.529Z,1.67
2022-12-27T19:51:59.186Z,2.33
2022-12-27T19:54:27.082Z,2.00
2022-12-27T19:56:54.427Z,1.35
2022-12-27T19:59:24.088Z,3.40
2022-12-27T20:01:52.723Z,0.50
2022-12-27T20:04:20.028Z,4.43
2022-12-27T20:06:49.019Z,7.13
2022-12-27T20:09:18.277Z,3.53
2022-12-27T20:11:46.247Z,0.95
2022-12-27T20:14:14.727Z,2.20
2022-12-27T20:16:41.822Z,1.58
2022-12-27T20:19:12.302Z,2.58
2022-12-27T20:21:40.739Z,1.85
2022-12-27T20:24:11.423Z,2.35
2022-12-27T20:26:40.460Z,2.35
2022-12-27T20:29:07.966Z,1.38
2022-12-27T20:31:43.847Z,1.95
2022-12-27T20:34:12.878Z,2.63
2022-12-27T20:36:39.814Z,2.50
2022-12-27T20:39:07.539Z,1.20
2022-12-27T20:41:35.879Z,2.45
2022-12-27T20:44:03.703Z,1.90
2022-12-27T20:46:30.720Z,1.52
2022-12-27T20:48:57.749Z,1.98
2022-12-27T20:51:32.131Z,3.42
2022-12-27T20:54:01.870Z,0.70
2022-12-27T20:56:28.930Z,0.52
2022-12-27T20:58:56.104Z,5.82
2022-12-27T21:01:25.565Z,1.58
2022-12-27T21:03:55.498Z,1.80
2022-12-27T21:06:24.704Z,3.55
2022-12-27T21:08:56.567Z,2.97
2022-12-27T21:13:55.154Z,4.45
2022-12-27T21:16:25.497Z,2.30
2022-12-27T21:18:53.245Z,1.33
2022-12-27T21:21:25.693Z,1.65
2022-12-27T21:23:55.425Z,1.38
2022-12-27T21:26:25.036Z,2.65
2022-12-27T21:28:52.453Z,2.08
2022-12-27T21:31:20.046Z,4.18
2022-12-27T21:33:48.560Z,1.85
2022-12-27T21:36:20.971Z,2.03
2022-12-27T21:38:48.995Z,3.15
2022-12-27T21:41:21.831Z,3.42
2022-12-27T21:43:50.032Z,3.38
2022-12-27T21:46:25.383Z,2.08
2022-12-27T21:49:04.785Z,2.22
2022-12-27T21:51:33.192Z,2.90
2022-12-27T21:54:00.478Z,7.45
2022-12-27T21:56:27.895Z,2.95
2022-12-27T21:58:55.689Z,2.70
2022-12-27T22:01:25.097Z,7.50
2022-12-27T22:03:53.767Z,2.08
2022-12-27T22:06:29.049Z,4.55
2022-12-27T22:09:01.860Z,1.65
2022-12-27T22:11:30.695Z,3.15
2022-12-27T22:13:58.321Z,2.03
2022-12-27T22:16:30.477Z,5.20
2022-12-27T22:18:57.946Z,4.28
2022-12-27T22:21:27.845Z,3.20
2022-12-27T22:23:57.192Z,2.95
2022-12-27T22:26:29.879Z,3.08
2022-12-27T22:31:30.472Z,2.95
2022-12-27T22:33:57.655Z,2.53
2022-12-27T22:36:26.438Z,1.35
2022-12-27T22:38:56.246Z,4.78
2022-12-27T22:41:26.220Z,3.17
2022-12-27T22:43:56.347Z,2.58
2022-12-27T22:46:24.185Z,1.75
2022-12-27T22:48:52.944Z,2.13
2022-12-27T22:51:26.080Z,10.23
2022-12-27T22:53:54.260Z,3.45
2022-12-27T22:56:27.849Z,3.35
2022-12-27T22:58:55.338Z,6.15
2022-12-27T23:01:33.056Z,6.93
2022-12-27T23:04:01.744Z,2.42
2022-12-27T23:06:30.298Z,2.58
2022-12-27T23:08:57.548Z,1.92
2022-12-27T23:11:27.957Z,3.10
2022-12-27T23:14:01.051Z,5.20
2022-12-27T23:16:29.146Z,5.60
2022-12-27T23:18:56.146Z,1.75
2022-12-27T23:21:24.796Z,1.77
2022-12-27T23:23:52.629Z,2.78
2022-12-27T23:26:22.906Z,1.38
2022-12-27T23:28:51.736Z,2.47
2022-12-27T23:31:20.791Z,2.80
2022-12-27T23:33:48.046Z,3.22
2022-12-27T23:36:16.017Z,2.50
2022-12-27T23:38:43.950Z,3.15
2022-12-27T23:41:15.689Z,3.85
2022-12-27T23:43:58.520Z,7.43
2022-12-27T23:49:01.080Z,4.97
2022-12-27T23:51:29.994Z,3.45
2022-12-27T23:53:57.238Z,2.60
2022-12-27T23:56:27.104Z,2.90
2022-12-27T23:58:56.603Z,1.85
